This is the latest recevied weather packets stored in our database for station/object SR9NSK-1. If no packets are shown the sender has not sent any weather packets the latest 1 day(s).
| Time | Temp. | Humidity | Pressure | Rain* | Wind** | Luminosity | Snow |
|---|---|---|---|---|---|---|---|
| 1836274817 | 17.22° C | 72% | 886.2 hPa | - | 1.34 m/s, 190° | - | - |
| 1836274695 | 17.22° C | 72% | 886.2 hPa | - | 1.34 m/s, 190° | - | - |
| 1836274575 | 17.22° C | 72% | 886.2 hPa | - | 1.34 m/s, 191° | - | - |
| 1836274546 | 16.67° C | 71% | 886.1 hPa | - | 1.79 m/s, 195° | - | - |
| 1836274454 | 17.22° C | 72% | 886.2 hPa | - | 1.34 m/s, 196° | - | - |
| 1836274426 | 16.67° C | 72% | 886.1 hPa | - | 1.79 m/s, 186° | - | - |
| 1836274334 | 17.22° C | 72% | 886.2 hPa | - | 1.34 m/s, 201° | - | - |
| 1836274306 | 17.22° C | 72% | 886.2 hPa | - | 1.34 m/s, 178° | - | - |
| 1836274214 | 17.22° C | 72% | 886.2 hPa | - | 1.34 m/s, 207° | - | - |
| 1836274187 | 17.22° C | 72% | 886.1 hPa | - | 1.34 m/s, 184° | - | - |
| 1836274094 | 17.22° C | 72% | 886.2 hPa | - | 1.34 m/s, 208° | - | - |
| 1836273974 | 17.78° C | 72% | 886.2 hPa | - | 1.34 m/s, 207° | - | - |
| 1778027877 | 8.89° C | 57% | 867.1 hPa | - | 9.83 m/s, 155° | - | - |
| 1778027757 | 8.89° C | 57% | 867.2 hPa | - | 8.94 m/s, 162° | - | - |
| 1778027635 | 8.89° C | 57% | 867.2 hPa | - | 9.83 m/s, 166° | - | - |
| 1778027515 | 8.89° C | 57% | 867.2 hPa | - | 9.39 m/s, 166° | - | - |
| 1778027395 | 8.89° C | 57% | 867.3 hPa | - | 8.49 m/s, 156° | - | - |
| 1778027275 | 8.89° C | 56% | 867.4 hPa | - | 7.15 m/s, 149° | - | - |
| 1778027155 | 8.89° C | 56% | 867.2 hPa | - | 9.39 m/s, 153° | - | - |
| 1778027033 | 8.89° C | 56% | 867.2 hPa | - | 9.83 m/s, 162° | - | - |
| 1778026913 | 8.89° C | 56% | 867.3 hPa | - | 8.49 m/s, 150° | - | - |
| 1778026793 | 9.44° C | 56% | 867.3 hPa | - | 7.15 m/s, 140° | - | - |
| 1778026673 | 9.44° C | 56% | 867.3 hPa | - | 8.49 m/s, 153° | - | - |
| 1778026553 | 9.44° C | 56% | 867.2 hPa | - | 8.49 m/s, 136° | - | - |
| 1778026431 | 9.44° C | 56% | 867.2 hPa | - | 9.39 m/s, 147° | - | - |
* Rain since midnight (hover to see other rain measurements)
** Current wind speed in m/s (hover to see current wind gust speed)